sensor_id;sensor_type;location;lat;lon;timestamp;pressure;altitude;pressure_sealevel;temperature
71897;BMP280;59767;51.344;12.362;2022-07-06T00:02:45;100896.19;;;20.50
71897;BMP280;59767;51.344;12.362;2022-07-06T00:05:49;100896.38;;;20.48
71897;BMP280;59767;51.344;12.362;2022-07-06T00:08:53;100896.38;;;20.48
71897;BMP280;59767;51.344;12.362;2022-07-06T00:11:57;100896.38;;;20.48
71897;BMP280;59767;51.344;12.362;2022-07-06T00:15:02;100906.66;;;20.48
71897;BMP280;59767;51.344;12.362;2022-07-06T00:18:06;100900.38;;;20.44
71897;BMP280;59767;51.344;12.362;2022-07-06T00:21:11;100899.00;;;20.42
71897;BMP280;59767;51.344;12.362;2022-07-06T00:24:15;100900.25;;;20.33
71897;BMP280;59767;51.344;12.362;2022-07-06T00:27:21;100897.69;;;20.26
71897;BMP280;59767;51.344;12.362;2022-07-06T00:30:25;100889.78;;;20.21
71897;BMP280;59767;51.344;12.362;2022-07-06T00:33:29;100892.97;;;20.23
71897;BMP280;59767;51.344;12.362;2022-07-06T00:36:33;100896.34;;;20.24
71897;BMP280;59767;51.344;12.362;2022-07-06T00:39:37;100891.19;;;20.24
71897;BMP280;59767;51.344;12.362;2022-07-06T00:42:42;100887.81;;;20.23
71897;BMP280;59767;51.344;12.362;2022-07-06T00:45:46;100887.81;;;20.17
71897;BMP280;59767;51.344;12.362;2022-07-06T00:48:50;100893.63;;;20.12
71897;BMP280;59767;51.344;12.362;2022-07-06T00:51:55;100898.59;;;20.07
71897;BMP280;59767;51.344;12.362;2022-07-06T00:54:59;100898.25;;;19.97
71897;BMP280;59767;51.344;12.362;2022-07-06T00:58:06;100902.22;;;19.93
71897;BMP280;59767;51.344;12.362;2022-07-06T01:01:11;100901.06;;;19.89
71897;BMP280;59767;51.344;12.362;2022-07-06T01:04:15;100905.81;;;19.79
71897;BMP280;59767;51.344;12.362;2022-07-06T01:07:19;100900.31;;;19.69
71897;BMP280;59767;51.344;12.362;2022-07-06T01:10:23;100899.38;;;19.58
71897;BMP280;59767;51.344;12.362;2022-07-06T01:13:30;100904.72;;;19.56
71897;BMP280;59767;51.344;12.362;2022-07-06T01:16:09;100902.75;;;19.52
71897;BMP280;59767;51.344;12.362;2022-07-06T01:19:14;100887.34;;;19.45
71897;BMP280;59767;51.344;12.362;2022-07-06T01:22:18;100892.50;;;19.39
71897;BMP280;59767;51.344;12.362;2022-07-06T01:25:22;100888.19;;;19.26
71897;BMP280;59767;51.344;12.362;2022-07-06T01:28:27;100886.22;;;19.22
71897;BMP280;59767;51.344;12.362;2022-07-06T01:31:31;100887.56;;;19.11
71897;BMP280;59767;51.344;12.362;2022-07-06T01:34:35;100893.72;;;19.10
71897;BMP280;59767;51.344;12.362;2022-07-06T01:37:40;100897.06;;;18.98
71897;BMP280;59767;51.344;12.362;2022-07-06T01:40:44;100896.69;;;18.94
71897;BMP280;59767;51.344;12.362;2022-07-06T01:43:48;100897.28;;;18.90
71897;BMP280;59767;51.344;12.362;2022-07-06T01:46:52;100896.69;;;18.75
71897;BMP280;59767;51.344;12.362;2022-07-06T01:50:00;100893.72;;;18.65
71897;BMP280;59767;51.344;12.362;2022-07-06T01:53:04;100892.09;;;18.57
71897;BMP280;59767;51.344;12.362;2022-07-06T01:56:09;100898.59;;;18.53
71897;BMP280;59767;51.344;12.362;2022-07-06T01:59:13;100900.59;;;18.51
71897;BMP280;59767;51.344;12.362;2022-07-06T02:02:17;100898.78;;;18.39
71897;BMP280;59767;51.344;12.362;2022-07-06T02:05:22;100901.53;;;18.37
71897;BMP280;59767;51.344;12.362;2022-07-06T02:08:26;100906.66;;;18.31
71897;BMP280;59767;51.344;12.362;2022-07-06T02:11:30;100913.16;;;18.33
71897;BMP280;59767;51.344;12.362;2022-07-06T02:14:35;100916.09;;;18.24
71897;BMP280;59767;51.344;12.362;2022-07-06T02:17:39;100919.44;;;18.18
71897;BMP280;59767;51.344;12.362;2022-07-06T02:20:43;100911.50;;;18.13
71897;BMP280;59767;51.344;12.362;2022-07-06T02:23:47;100903.56;;;18.08
71897;BMP280;59767;51.344;12.362;2022-07-06T02:26:51;100907.97;;;18.14
71897;BMP280;59767;51.344;12.362;2022-07-06T02:29:55;100923.78;;;18.11
71897;BMP280;59767;51.344;12.362;2022-07-06T02:32:59;100914.63;;;18.02
71897;BMP280;59767;51.344;12.362;2022-07-06T02:36:03;100920.13;;;17.99
71897;BMP280;59767;51.344;12.362;2022-07-06T02:39:07;100914.22;;;17.92
71897;BMP280;59767;51.344;12.362;2022-07-06T02:42:11;100914.53;;;17.89
71897;BMP280;59767;51.344;12.362;2022-07-06T02:45:15;100916.91;;;17.84
71897;BMP280;59767;51.344;12.362;2022-07-06T02:48:19;100915.91;;;17.85
71897;BMP280;59767;51.344;12.362;2022-07-06T02:51:25;100920.25;;;17.84
71897;BMP280;59767;51.344;12.362;2022-07-06T02:54:29;100918.41;;;17.72
71897;BMP280;59767;51.344;12.362;2022-07-06T02:57:33;100932.22;;;17.71
71897;BMP280;59767;51.344;12.362;2022-07-06T03:00:37;100942.06;;;17.67
71897;BMP280;59767;51.344;12.362;2022-07-06T03:03:41;100937.25;;;17.58
71897;BMP280;59767;51.344;12.362;2022-07-06T03:06:45;100950.19;;;17.50
71897;BMP280;59767;51.344;12.362;2022-07-06T03:09:50;100936.53;;;17.43
71897;BMP280;59767;51.344;12.362;2022-07-06T03:12:54;100936.94;;;17.40
71897;BMP280;59767;51.344;12.362;2022-07-06T03:15:58;100942.16;;;17.32
71897;BMP280;59767;51.344;12.362;2022-07-06T03:19:02;100950.41;;;17.27
71897;BMP280;59767;51.344;12.362;2022-07-06T03:22:07;100953.41;;;17.31
71897;BMP280;59767;51.344;12.362;2022-07-06T03:25:11;100951.22;;;17.28
71897;BMP280;59767;51.344;12.362;2022-07-06T03:28:15;100953.53;;;17.23
71897;BMP280;59767;51.344;12.362;2022-07-06T03:31:19;100952.34;;;17.19
71897;BMP280;59767;51.344;12.362;2022-07-06T03:34:23;100953.91;;;17.20
71897;BMP280;59767;51.344;12.362;2022-07-06T03:37:27;100953.53;;;17.23
71897;BMP280;59767;51.344;12.362;2022-07-06T03:40:31;100962.16;;;17.15
71897;BMP280;59767;51.344;12.362;2022-07-06T03:43:35;100956.97;;;17.09
71897;BMP280;59767;51.344;12.362;2022-07-06T03:46:39;100965.63;;;17.08
71897;BMP280;59767;51.344;12.362;2022-07-06T03:49:43;100966.22;;;17.10
71897;BMP280;59767;51.344;12.362;2022-07-06T03:52:47;100971.22;;;17.18
71897;BMP280;59767;51.344;12.362;2022-07-06T03:55:52;100979.22;;;17.29
71897;BMP280;59767;51.344;12.362;2022-07-06T03:59:15;100973.38;;;17.35
71897;BMP280;59767;51.344;12.362;2022-07-06T04:02:19;100971.22;;;17.39
71897;BMP280;59767;51.344;12.362;2022-07-06T04:05:23;100970.03;;;17.41
71897;BMP280;59767;51.344;12.362;2022-07-06T04:08:27;100974.97;;;17.43
71897;BMP280;59767;51.344;12.362;2022-07-06T04:11:31;100979.75;;;17.46
71897;BMP280;59767;51.344;12.362;2022-07-06T04:14:35;100982.66;;;17.43
71897;BMP280;59767;51.344;12.362;2022-07-06T04:17:39;100986.78;;;17.37
71897;BMP280;59767;51.344;12.362;2022-07-06T04:20:55;100985.63;;;17.40
71897;BMP280;59767;51.344;12.362;2022-07-06T04:24:01;100983.88;;;17.40
71897;BMP280;59767;51.344;12.362;2022-07-06T04:27:05;100981.34;;;17.47
71897;BMP280;59767;51.344;12.362;2022-07-06T04:30:09;100989.66;;;17.49
71897;BMP280;59767;51.344;12.362;2022-07-06T04:33:14;100986.63;;;17.45
71897;BMP280;59767;51.344;12.362;2022-07-06T04:36:17;100999.03;;;17.42
71897;BMP280;59767;51.344;12.362;2022-07-06T04:39:22;101000.25;;;17.46
71897;BMP280;59767;51.344;12.362;2022-07-06T04:42:26;101008.63;;;17.54
71897;BMP280;59767;51.344;12.362;2022-07-06T04:45:30;101011.47;;;17.66
71897;BMP280;59767;51.344;12.362;2022-07-06T04:48:34;101007.09;;;17.87
71897;BMP280;59767;51.344;12.362;2022-07-06T04:51:42;101009.09;;;17.98
71897;BMP280;59767;51.344;12.362;2022-07-06T04:54:46;101009.56;;;18.08
71897;BMP280;59767;51.344;12.362;2022-07-06T04:57:50;101019.66;;;18.10
71897;BMP280;59767;51.344;12.362;2022-07-06T05:00:57;101018.88;;;18.09
71897;BMP280;59767;51.344;12.362;2022-07-06T05:04:01;101008.88;;;17.87
71897;BMP280;59767;51.344;12.362;2022-07-06T05:07:05;101007.19;;;17.79
71897;BMP280;59767;51.344;12.362;2022-07-06T05:10:10;101014.75;;;17.81
71897;BMP280;59767;51.344;12.362;2022-07-06T05:13:15;101004.06;;;17.77
71897;BMP280;59767;51.344;12.362;2022-07-06T05:16:20;101002.06;;;17.73
71897;BMP280;59767;51.344;12.362;2022-07-06T05:19:24;100999.72;;;17.78
71897;BMP280;59767;51.344;12.362;2022-07-06T05:22:28;101002.94;;;17.86
71897;BMP280;59767;51.344;12.362;2022-07-06T05:25:32;101017.59;;;17.99
71897;BMP280;59767;51.344;12.362;2022-07-06T05:28:36;101014.03;;;18.27
71897;BMP280;59767;51.344;12.362;2022-07-06T05:31:40;101019.03;;;18.42
71897;BMP280;59767;51.344;12.362;2022-07-06T05:34:45;101018.41;;;18.40
71897;BMP280;59767;51.344;12.362;2022-07-06T05:37:49;101015.63;;;18.35
71897;BMP280;59767;51.344;12.362;2022-07-06T05:40:53;101028.06;;;18.25
71897;BMP280;59767;51.344;12.362;2022-07-06T05:43:57;101026.44;;;18.24
71897;BMP280;59767;51.344;12.362;2022-07-06T05:47:01;101025.28;;;18.26
71897;BMP280;59767;51.344;12.362;2022-07-06T05:50:24;101011.88;;;18.31
71897;BMP280;59767;51.344;12.362;2022-07-06T05:53:28;101014.06;;;18.34
71897;BMP280;59767;51.344;12.362;2022-07-06T05:56:32;101017.22;;;18.36
71897;BMP280;59767;51.344;12.362;2022-07-06T05:59:36;101030.22;;;18.28
71897;BMP280;59767;51.344;12.362;2022-07-06T06:02:41;101023.56;;;18.40
71897;BMP280;59767;51.344;12.362;2022-07-06T06:05:45;101029.78;;;18.58
71897;BMP280;59767;51.344;12.362;2022-07-06T06:08:49;101025.09;;;18.75
71897;BMP280;59767;51.344;12.362;2022-07-06T06:11:54;101035.38;;;18.75
71897;BMP280;59767;51.344;12.362;2022-07-06T06:14:57;101032.63;;;18.83
71897;BMP280;59767;51.344;12.362;2022-07-06T06:18:02;101039.34;;;18.90
71897;BMP280;59767;51.344;12.362;2022-07-06T06:21:08;101046.50;;;19.01
71897;BMP280;59767;51.344;12.362;2022-07-06T06:24:13;101051.06;;;19.25
71897;BMP280;59767;51.344;12.362;2022-07-06T06:27:18;101049.09;;;19.72
71897;BMP280;59767;51.344;12.362;2022-07-06T06:30:22;101054.84;;;19.87
71897;BMP280;59767;51.344;12.362;2022-07-06T06:33:26;101047.53;;;19.84
71897;BMP280;59767;51.344;12.362;2022-07-06T06:36:31;101049.50;;;19.63
71897;BMP280;59767;51.344;12.362;2022-07-06T06:39:35;101051.50;;;19.54
71897;BMP280;59767;51.344;12.362;2022-07-06T06:42:39;101059.22;;;19.61
71897;BMP280;59767;51.344;12.362;2022-07-06T06:45:43;101065.13;;;19.68
71897;BMP280;59767;51.344;12.362;2022-07-06T06:48:48;101055.06;;;19.60
71897;BMP280;59767;51.344;12.362;2022-07-06T06:51:52;101057.22;;;19.82
71897;BMP280;59767;51.344;12.362;2022-07-06T06:55:17;101058.78;;;20.03
71897;BMP280;59767;51.344;12.362;2022-07-06T06:58:22;101062.66;;;20.31
71897;BMP280;59767;51.344;12.362;2022-07-06T07:01:27;101064.06;;;20.71
71897;BMP280;59767;51.344;12.362;2022-07-06T07:04:32;101065.63;;;20.72
71897;BMP280;59767;51.344;12.362;2022-07-06T07:07:36;101079.56;;;20.65
71897;BMP280;59767;51.344;12.362;2022-07-06T07:10:40;101078.59;;;20.59
71897;BMP280;59767;51.344;12.362;2022-07-06T07:13:45;101082.56;;;20.55
71897;BMP280;59767;51.344;12.362;2022-07-06T07:16:49;101085.56;;;20.52
71897;BMP280;59767;51.344;12.362;2022-07-06T07:19:53;101084.94;;;20.57
71897;BMP280;59767;51.344;12.362;2022-07-06T07:23:00;101075.69;;;20.49
71897;BMP280;59767;51.344;12.362;2022-07-06T07:26:04;101073.34;;;20.41
71897;BMP280;59767;51.344;12.362;2022-07-06T07:29:08;101072.66;;;20.96
71897;BMP280;59767;51.344;12.362;2022-07-06T07:32:13;101071.81;;;22.48
71897;BMP280;59767;51.344;12.362;2022-07-06T07:35:17;101091.41;;;23.19
71897;BMP280;59767;51.344;12.362;2022-07-06T07:38:21;101075.94;;;23.53
71897;BMP280;59767;51.344;12.362;2022-07-06T07:41:26;101076.34;;;23.16
71897;BMP280;59767;51.344;12.362;2022-07-06T07:44:30;101060.53;;;22.83
71897;BMP280;59767;51.344;12.362;2022-07-06T07:47:35;101077.28;;;22.22
71897;BMP280;59767;51.344;12.362;2022-07-06T07:50:39;101079.03;;;21.67
71897;BMP280;59767;51.344;12.362;2022-07-06T07:53:43;101068.78;;;21.61
71897;BMP280;59767;51.344;12.362;2022-07-06T07:56:47;101079.50;;;21.82
71897;BMP280;59767;51.344;12.362;2022-07-06T07:59:51;101068.56;;;23.16
71897;BMP280;59767;51.344;12.362;2022-07-06T08:02:55;101067.53;;;22.94
71897;BMP280;59767;51.344;12.362;2022-07-06T08:06:00;101071.16;;;22.16
71897;BMP280;59767;51.344;12.362;2022-07-06T08:09:04;101072.63;;;21.52
71897;BMP280;59767;51.344;12.362;2022-07-06T08:12:08;101071.50;;;21.66
71897;BMP280;59767;51.344;12.362;2022-07-06T08:15:13;101074.03;;;21.23
71897;BMP280;59767;51.344;12.362;2022-07-06T08:18:17;101087.59;;;22.40
71897;BMP280;59767;51.344;12.362;2022-07-06T08:21:21;101084.69;;;24.71
71897;BMP280;59767;51.344;12.362;2022-07-06T08:24:28;101082.91;;;25.85
71897;BMP280;59767;51.344;12.362;2022-07-06T08:27:33;101069.22;;;26.16
71897;BMP280;59767;51.344;12.362;2022-07-06T08:30:37;101068.75;;;24.34
71897;BMP280;59767;51.344;12.362;2022-07-06T08:33:41;101070.53;;;23.20
71897;BMP280;59767;51.344;12.362;2022-07-06T08:36:45;101077.59;;;22.43
71897;BMP280;59767;51.344;12.362;2022-07-06T08:39:49;101073.41;;;22.13
71897;BMP280;59767;51.344;12.362;2022-07-06T08:42:54;101090.84;;;21.99
71897;BMP280;59767;51.344;12.362;2022-07-06T08:45:59;101110.44;;;24.33
71897;BMP280;59767;51.344;12.362;2022-07-06T08:49:06;101098.53;;;26.11
71897;BMP280;59767;51.344;12.362;2022-07-06T08:52:11;101072.41;;;26.90
71897;BMP280;59767;51.344;12.362;2022-07-06T08:55:17;101067.75;;;25.77
71897;BMP280;59767;51.344;12.362;2022-07-06T08:58:25;101067.16;;;23.94
71897;BMP280;59767;51.344;12.362;2022-07-06T09:01:32;101074.44;;;23.23
71897;BMP280;59767;51.344;12.362;2022-07-06T09:04:36;101075.44;;;23.33
71897;BMP280;59767;51.344;12.362;2022-07-06T09:07:41;101065.50;;;23.76
71897;BMP280;59767;51.344;12.362;2022-07-06T09:11:04;101084.47;;;23.54
71897;BMP280;59767;51.344;12.362;2022-07-06T09:14:08;101063.19;;;24.42
71897;BMP280;59767;51.344;12.362;2022-07-06T09:17:13;101071.63;;;23.70
71897;BMP280;59767;51.344;12.362;2022-07-06T09:20:20;101072.53;;;23.64
71897;BMP280;59767;51.344;12.362;2022-07-06T09:23:24;101065.97;;;23.62
71897;BMP280;59767;51.344;12.362;2022-07-06T09:26:28;101077.75;;;22.89
71897;BMP280;59767;51.344;12.362;2022-07-06T09:29:32;101071.53;;;23.31
71897;BMP280;59767;51.344;12.362;2022-07-06T09:32:45;101057.13;;;23.58
71897;BMP280;59767;51.344;12.362;2022-07-06T09:35:50;101059.25;;;23.26
71897;BMP280;59767;51.344;12.362;2022-07-06T09:38:55;101061.28;;;23.01
71897;BMP280;59767;51.344;12.362;2022-07-06T09:42:01;101060.94;;;22.68
71897;BMP280;59767;51.344;12.362;2022-07-06T09:45:08;101064.06;;;22.48
71897;BMP280;59767;51.344;12.362;2022-07-06T09:48:14;101056.50;;;22.46
71897;BMP280;59767;51.344;12.362;2022-07-06T09:51:20;101061.31;;;22.72
71897;BMP280;59767;51.344;12.362;2022-07-06T09:54:29;101056.41;;;22.93
71897;BMP280;59767;51.344;12.362;2022-07-06T09:57:35;101059.38;;;22.38
71897;BMP280;59767;51.344;12.362;2022-07-06T10:00:39;101056.25;;;22.18
71897;BMP280;59767;51.344;12.362;2022-07-06T10:03:43;101061.44;;;22.18
71897;BMP280;59767;51.344;12.362;2022-07-06T10:06:48;101060.47;;;22.60
71897;BMP280;59767;51.344;12.362;2022-07-06T10:09:52;101056.84;;;22.79
71897;BMP280;59767;51.344;12.362;2022-07-06T10:12:58;101071.94;;;22.64
71897;BMP280;59767;51.344;12.362;2022-07-06T10:19:53;101058.06;;;22.18
71897;BMP280;59767;51.344;12.362;2022-07-06T10:23:00;101058.06;;;22.00
71897;BMP280;59767;51.344;12.362;2022-07-06T10:26:06;101053.28;;;22.03
71897;BMP280;59767;51.344;12.362;2022-07-06T10:29:16;101045.00;;;22.42
71897;BMP280;59767;51.344;12.362;2022-07-06T10:32:22;101046.84;;;22.53
71897;BMP280;59767;51.344;12.362;2022-07-06T10:35:26;101045.28;;;22.81
71897;BMP280;59767;51.344;12.362;2022-07-06T10:38:32;101046.06;;;23.05
71897;BMP280;59767;51.344;12.362;2022-07-06T10:41:37;101040.66;;;22.83
71897;BMP280;59767;51.344;12.362;2022-07-06T10:44:44;101039.97;;;22.76
71897;BMP280;59767;51.344;12.362;2022-07-06T10:48:15;101033.53;;;22.67
71897;BMP280;59767;51.344;12.362;2022-07-06T10:51:28;101030.22;;;22.90
71897;BMP280;59767;51.344;12.362;2022-07-06T10:54:39;101030.63;;;22.75
71897;BMP280;59767;51.344;12.362;2022-07-06T10:57:52;101036.50;;;22.94
71897;BMP280;59767;51.344;12.362;2022-07-06T11:00:56;101026.84;;;23.01
71897;BMP280;59767;51.344;12.362;2022-07-06T11:07:12;101031.13;;;22.55
71897;BMP280;59767;51.344;12.362;2022-07-06T11:10:16;101015.56;;;22.72
71897;BMP280;59767;51.344;12.362;2022-07-06T11:13:27;101017.50;;;22.77
71897;BMP280;59767;51.344;12.362;2022-07-06T11:16:34;101024.59;;;22.81
71897;BMP280;59767;51.344;12.362;2022-07-06T11:20:11;101025.66;;;22.63
71897;BMP280;59767;51.344;12.362;2022-07-06T11:23:15;101030.88;;;22.74
71897;BMP280;59767;51.344;12.362;2022-07-06T11:26:21;101014.69;;;22.90
71897;BMP280;59767;51.344;12.362;2022-07-06T11:29:28;101031.34;;;22.94
71897;BMP280;59767;51.344;12.362;2022-07-06T11:32:31;101027.50;;;22.73
71897;BMP280;59767;51.344;12.362;2022-07-06T11:35:35;101031.34;;;22.53
71897;BMP280;59767;51.344;12.362;2022-07-06T11:38:40;101007.41;;;22.98
71897;BMP280;59767;51.344;12.362;2022-07-06T11:41:45;101016.50;;;23.24
71897;BMP280;59767;51.344;12.362;2022-07-06T11:44:54;101014.91;;;23.57
71897;BMP280;59767;51.344;12.362;2022-07-06T11:48:12;101007.66;;;23.20
71897;BMP280;59767;51.344;12.362;2022-07-06T11:51:16;101014.84;;;22.95
71897;BMP280;59767;51.344;12.362;2022-07-06T11:54:21;101015.47;;;22.79
71897;BMP280;59767;51.344;12.362;2022-07-06T11:57:27;101018.97;;;22.84
71897;BMP280;59767;51.344;12.362;2022-07-06T12:00:34;101017.31;;;23.01
71897;BMP280;59767;51.344;12.362;2022-07-06T12:03:46;101021.00;;;23.05
71897;BMP280;59767;51.344;12.362;2022-07-06T12:06:50;101003.06;;;23.22
71897;BMP280;59767;51.344;12.362;2022-07-06T12:09:54;101003.91;;;23.27
71897;BMP280;59767;51.344;12.362;2022-07-06T12:13:03;101001.91;;;23.29
71897;BMP280;59767;51.344;12.362;2022-07-06T12:16:13;100996.81;;;23.46
71897;BMP280;59767;51.344;12.362;2022-07-06T12:19:22;100995.16;;;23.28
71897;BMP280;59767;51.344;12.362;2022-07-06T12:22:26;100994.59;;;23.03
71897;BMP280;59767;51.344;12.362;2022-07-06T12:25:31;100998.16;;;22.79
71897;BMP280;59767;51.344;12.362;2022-07-06T12:28:36;100992.81;;;23.04
71897;BMP280;59767;51.344;12.362;2022-07-06T12:34:44;100992.09;;;22.97
71897;BMP280;59767;51.344;12.362;2022-07-06T12:37:55;100985.59;;;23.29
71897;BMP280;59767;51.344;12.362;2022-07-06T12:41:01;100990.66;;;23.24
71897;BMP280;59767;51.344;12.362;2022-07-06T12:44:08;100990.75;;;22.94
71897;BMP280;59767;51.344;12.362;2022-07-06T12:47:16;100975.38;;;22.99
71897;BMP280;59767;51.344;12.362;2022-07-06T12:50:20;100982.69;;;23.14
71897;BMP280;59767;51.344;12.362;2022-07-06T12:53:33;100969.16;;;23.35
71897;BMP280;59767;51.344;12.362;2022-07-06T12:56:37;100984.88;;;23.56
71897;BMP280;59767;51.344;12.362;2022-07-06T12:59:44;100976.38;;;23.33
71897;BMP280;59767;51.344;12.362;2022-07-06T13:02:50;100964.91;;;23.29
71897;BMP280;59767;51.344;12.362;2022-07-06T13:06:27;100977.59;;;23.30
71897;BMP280;59767;51.344;12.362;2022-07-06T13:09:32;100984.34;;;23.08
71897;BMP280;59767;51.344;12.362;2022-07-06T13:12:37;100990.66;;;23.01
71897;BMP280;59767;51.344;12.362;2022-07-06T13:15:42;100991.25;;;23.03
71897;BMP280;59767;51.344;12.362;2022-07-06T13:18:47;100989.78;;;23.07
71897;BMP280;59767;51.344;12.362;2022-07-06T13:21:51;100989.53;;;23.08
71897;BMP280;59767;51.344;12.362;2022-07-06T13:24:55;100985.22;;;23.37
71897;BMP280;59767;51.344;12.362;2022-07-06T13:28:00;100982.31;;;23.33
71897;BMP280;59767;51.344;12.362;2022-07-06T13:31:04;100968.50;;;23.28
71897;BMP280;59767;51.344;12.362;2022-07-06T13:34:15;100969.69;;;23.37
71897;BMP280;59767;51.344;12.362;2022-07-06T13:37:20;100963.09;;;23.41
71897;BMP280;59767;51.344;12.362;2022-07-06T13:40:25;100955.28;;;23.52
71897;BMP280;59767;51.344;12.362;2022-07-06T13:43:28;100964.72;;;23.58
71897;BMP280;59767;51.344;12.362;2022-07-06T13:46:40;100958.53;;;23.59
71897;BMP280;59767;51.344;12.362;2022-07-06T13:49:44;100954.81;;;23.55
71897;BMP280;59767;51.344;12.362;2022-07-06T13:52:52;100962.75;;;23.26
71897;BMP280;59767;51.344;12.362;2022-07-06T13:55:56;100958.81;;;23.12
71897;BMP280;59767;51.344;12.362;2022-07-06T13:59:00;100970.50;;;23.26
71897;BMP280;59767;51.344;12.362;2022-07-06T14:02:04;100955.69;;;23.21
71897;BMP280;59767;51.344;12.362;2022-07-06T14:05:09;100961.09;;;23.20
71897;BMP280;59767;51.344;12.362;2022-07-06T14:08:16;100955.91;;;23.20
71897;BMP280;59767;51.344;12.362;2022-07-06T14:11:20;100956.81;;;23.25
71897;BMP280;59767;51.344;12.362;2022-07-06T14:14:24;100953.31;;;23.20
71897;BMP280;59767;51.344;12.362;2022-07-06T14:17:29;100958.50;;;23.20
71897;BMP280;59767;51.344;12.362;2022-07-06T14:20:33;100956.50;;;23.22
71897;BMP280;59767;51.344;12.362;2022-07-06T14:23:37;100945.06;;;23.46
71897;BMP280;59767;51.344;12.362;2022-07-06T14:26:42;100948.81;;;23.15
71897;BMP280;59767;51.344;12.362;2022-07-06T14:29:46;100949.75;;;22.98
71897;BMP280;59767;51.344;12.362;2022-07-06T14:32:50;100945.56;;;22.74
71897;BMP280;59767;51.344;12.362;2022-07-06T14:35:55;100954.88;;;22.63
71897;BMP280;59767;51.344;12.362;2022-07-06T14:39:00;100945.66;;;22.56
71897;BMP280;59767;51.344;12.362;2022-07-06T14:42:04;100945.13;;;23.00
71897;BMP280;59767;51.344;12.362;2022-07-06T14:45:09;100939.38;;;23.21
71897;BMP280;59767;51.344;12.362;2022-07-06T14:48:14;100945.56;;;23.20
71897;BMP280;59767;51.344;12.362;2022-07-06T14:51:18;100938.38;;;23.10
71897;BMP280;59767;51.344;12.362;2022-07-06T14:54:23;100941.41;;;22.84
71897;BMP280;59767;51.344;12.362;2022-07-06T14:57:27;100942.28;;;22.78
71897;BMP280;59767;51.344;12.362;2022-07-06T15:00:31;100940.06;;;22.70
71897;BMP280;59767;51.344;12.362;2022-07-06T15:03:36;100934.78;;;22.77
71897;BMP280;59767;51.344;12.362;2022-07-06T15:06:40;100946.94;;;23.11
71897;BMP280;59767;51.344;12.362;2022-07-06T15:10:00;100933.84;;;23.29
71897;BMP280;59767;51.344;12.362;2022-07-06T15:13:04;100939.50;;;23.14
71897;BMP280;59767;51.344;12.362;2022-07-06T15:16:09;100930.63;;;23.10
71897;BMP280;59767;51.344;12.362;2022-07-06T15:19:13;100951.75;;;22.96
71897;BMP280;59767;51.344;12.362;2022-07-06T15:22:17;100943.09;;;23.02
71897;BMP280;59767;51.344;12.362;2022-07-06T15:25:21;100951.19;;;22.94
71897;BMP280;59767;51.344;12.362;2022-07-06T15:28:28;100937.38;;;22.88
71897;BMP280;59767;51.344;12.362;2022-07-06T15:31:32;100933.97;;;22.76
71897;BMP280;59767;51.344;12.362;2022-07-06T15:34:37;100932.53;;;22.69
71897;BMP280;59767;51.344;12.362;2022-07-06T15:37:41;100925.47;;;22.76
71897;BMP280;59767;51.344;12.362;2022-07-06T15:40:45;100920.84;;;22.67
71897;BMP280;59767;51.344;12.362;2022-07-06T15:43:54;100924.06;;;22.51
71897;BMP280;59767;51.344;12.362;2022-07-06T15:47:03;100925.16;;;22.32
71897;BMP280;59767;51.344;12.362;2022-07-06T15:50:09;100922.69;;;22.25
71897;BMP280;59767;51.344;12.362;2022-07-06T15:53:13;100935.28;;;22.33
71897;BMP280;59767;51.344;12.362;2022-07-06T15:56:17;100926.63;;;22.39
71897;BMP280;59767;51.344;12.362;2022-07-06T15:59:21;100921.69;;;22.60
71897;BMP280;59767;51.344;12.362;2022-07-06T16:02:26;100923.88;;;22.63
71897;BMP280;59767;51.344;12.362;2022-07-06T16:05:31;100920.81;;;22.55
71897;BMP280;59767;51.344;12.362;2022-07-06T16:08:55;100923.84;;;22.41
71897;BMP280;59767;51.344;12.362;2022-07-06T16:11:59;100929.69;;;22.48
71897;BMP280;59767;51.344;12.362;2022-07-06T16:15:04;100927.22;;;22.41
71897;BMP280;59767;51.344;12.362;2022-07-06T16:18:09;100917.06;;;22.28
71897;BMP280;59767;51.344;12.362;2022-07-06T16:21:13;100914.53;;;22.10
71897;BMP280;59767;51.344;12.362;2022-07-06T16:24:20;100910.06;;;21.88
71897;BMP280;59767;51.344;12.362;2022-07-06T16:27:25;100910.44;;;21.73
71897;BMP280;59767;51.344;12.362;2022-07-06T16:30:29;100901.34;;;21.71
71897;BMP280;59767;51.344;12.362;2022-07-06T16:33:34;100914.31;;;21.82
71897;BMP280;59767;51.344;12.362;2022-07-06T16:36:41;100898.38;;;21.85
71897;BMP280;59767;51.344;12.362;2022-07-06T16:39:45;100895.22;;;21.83
71897;BMP280;59767;51.344;12.362;2022-07-06T16:42:49;100897.97;;;21.70
71897;BMP280;59767;51.344;12.362;2022-07-06T16:45:53;100887.63;;;21.70
71897;BMP280;59767;51.344;12.362;2022-07-06T16:48:58;100883.13;;;21.66
71897;BMP280;59767;51.344;12.362;2022-07-06T16:52:02;100897.88;;;21.65
71897;BMP280;59767;51.344;12.362;2022-07-06T16:55:06;100895.06;;;21.67
71897;BMP280;59767;51.344;12.362;2022-07-06T16:58:10;100896.00;;;21.54
71897;BMP280;59767;51.344;12.362;2022-07-06T17:01:14;100889.25;;;21.53
71897;BMP280;59767;51.344;12.362;2022-07-06T17:04:19;100882.63;;;21.46
71897;BMP280;59767;51.344;12.362;2022-07-06T17:07:24;100887.03;;;21.39
71897;BMP280;59767;51.344;12.362;2022-07-06T17:10:28;100883.66;;;21.38
71897;BMP280;59767;51.344;12.362;2022-07-06T17:13:32;100885.31;;;21.33
71897;BMP280;59767;51.344;12.362;2022-07-06T17:16:36;100879.66;;;21.24
71897;BMP280;59767;51.344;12.362;2022-07-06T17:19:40;100883.22;;;21.23
71897;BMP280;59767;51.344;12.362;2022-07-06T17:22:44;100881.88;;;21.21
71897;BMP280;59767;51.344;12.362;2022-07-06T17:25:48;100883.13;;;21.12
71897;BMP280;59767;51.344;12.362;2022-07-06T17:28:53;100880.28;;;21.02